Time;durP1;ratioP1;P1;durP2;ratioP2;P2;SDS_P1;SDS_P2;PMS_P1;PMS_P2;Temp;Humidity;BMP_temperature;BMP_pressure;BME280_temperature;BME280_humidity;BME280_pressure;Samples;Min_cycle;Max_cycle;Signal;HPM_P1;HPM_P2
2022/01/19 00:00:51;;;;;;;;;5.00;5.00;;;;;19.89;32.72;102562.34;4975335;28;45652;-53
2022/01/19 00:03:17;;;;;;;;;6.25;6.25;;;;;19.89;33.07;102562.34;4974876;28;45363;-52
2022/01/19 00:05:42;;;;;;;;;8.25;6.50;;;;;19.88;33.02;102565.88;4974973;28;45348;-56
2022/01/19 00:08:08;;;;;;;;;7.25;6.50;;;;;19.89;32.75;102572.03;4974913;28;45456;-51
2022/01/19 00:10:34;;;;;;;;;7.00;5.75;;;;;19.86;33.05;102567.69;4974825;28;45470;-55
2022/01/19 00:13:00;;;;;;;;;8.00;6.00;;;;;19.87;32.63;102571.19;4974832;28;45384;-48
2022/01/19 00:15:28;;;;;;;;;5.25;5.25;;;;;19.87;32.55;102571.19;4975120;28;45329;-56
2022/01/19 00:17:57;;;;;;;;;6.00;6.00;;;;;19.88;32.64;102567.66;4975032;28;45255;-53
2022/01/19 00:20:23;;;;;;;;;6.50;5.75;;;;;19.87;32.73;102547.50;4975178;28;45517;-59
2022/01/19 00:22:51;;;;;;;;;7.00;5.50;;;;;19.86;33.15;102530.00;4973560;28;45470;-54
2022/01/19 00:25:17;;;;;;;;;7.00;5.25;;;;;19.86;32.73;102522.09;4974653;28;45851;-53
2022/01/19 00:27:43;;;;;;;;;7.25;5.25;;;;;19.85;32.83;102517.69;4974891;28;45316;-50
2022/01/19 00:30:09;;;;;;;;;7.00;7.00;;;;;19.85;32.97;102513.28;4974947;28;45623;-54
2022/01/19 00:32:34;;;;;;;;;6.75;5.75;;;;;19.85;33.00;102497.50;4974670;28;45328;-50
2022/01/19 00:35:01;;;;;;;;;7.00;7.00;;;;;19.88;32.93;102491.34;4957508;28;45265;-48
2022/01/19 00:37:26;;;;;;;;;6.75;6.75;;;;;19.89;33.13;102491.28;4975140;28;45299;-45
2022/01/19 00:39:52;;;;;;;;;6.25;6.25;;;;;19.94;33.53;102485.91;4974834;28;45553;-49
2022/01/19 00:42:18;;;;;;;;;6.25;6.25;;;;;19.99;33.14;102504.22;4974440;28;45443;-49
2022/01/19 00:44:44;;;;;;;;;4.00;4.00;;;;;20.03;33.13;102511.97;4974571;28;45362;-45
2022/01/19 00:47:09;;;;;;;;;7.75;6.50;;;;;20.08;32.56;102512.72;4974658;28;45386;-49
2022/01/19 00:49:34;;;;;;;;;6.00;5.00;;;;;20.13;32.87;102511.72;4974564;28;45554;-46
2022/01/19 00:52:00;;;;;;;;;4.75;4.25;;;;;20.18;32.69;102512.47;4974475;28;45435;-45
2022/01/19 00:54:26;;;;;;;;;5.00;4.25;;;;;20.21;33.05;102520.31;4974445;28;45310;-45
2022/01/19 00:56:51;;;;;;;;;5.50;5.50;;;;;20.26;32.58;102528.91;4974382;28;45414;-51
2022/01/19 00:59:16;;;;;;;;;6.00;5.00;;;;;20.29;33.04;102534.13;4974581;28;45553;-51
2022/01/19 01:01:42;;;;;;;;;6.00;5.50;;;;;20.32;32.30;102512.97;4974177;28;46202;-46
2022/01/19 01:04:07;;;;;;;;;5.00;5.00;;;;;20.34;32.59;102499.75;4956813;28;49661;-58
2022/01/19 01:06:33;;;;;;;;;5.00;5.00;;;;;20.36;32.73;102503.22;4974438;28;45352;-50
2022/01/19 01:08:58;;;;;;;;;8.25;6.75;;;;;20.39;32.56;102506.63;4974490;28;45414;-59
2022/01/19 01:11:28;;;;;;;;;6.00;4.25;;;;;20.42;32.38;102491.63;4974208;28;45336;-58
2022/01/19 01:16:36;;;;;;;;;4.25;4.25;;;;;20.43;32.19;102477.56;4974220;28;45332;-55
2022/01/19 01:19:05;;;;;;;;;5.00;5.00;;;;;20.44;32.70;102471.41;4974606;28;45333;-56
2022/01/19 01:21:30;;;;;;;;;6.00;5.75;;;;;20.45;32.56;102465.22;4974296;28;46764;-56
2022/01/19 01:23:56;;;;;;;;;5.00;5.00;;;;;20.45;32.79;102463.44;4973941;28;45349;-57
2022/01/19 01:26:21;;;;;;;;;4.00;4.00;;;;;20.46;32.50;102459.91;4974080;28;45247;-58
2022/01/19 01:28:46;;;;;;;;;6.50;4.75;;;;;20.46;32.60;102459.91;4974103;28;45567;-53
2022/01/19 01:31:12;;;;;;;;;6.00;6.00;;;;;20.46;32.58;102474.81;4973721;28;45366;-57
2022/01/19 01:33:39;;;;;;;;;5.75;5.75;;;;;20.47;32.07;102479.19;4974704;28;45262;-58
2022/01/19 01:36:05;;;;;;;;;4.00;4.00;;;;;20.47;32.61;102473.91;4976947;28;45221;-56
2022/01/19 01:38:30;;;;;;;;;8.00;6.00;;;;;20.48;32.22;102478.28;4977299;28;45517;-56
2022/01/19 01:40:56;;;;;;;;;6.50;5.00;;;;;20.46;32.42;102485.34;4976556;28;46144;-54
2022/01/19 01:43:21;;;;;;;;;6.00;6.00;;;;;20.47;32.24;102479.19;4976654;28;45396;-58
2022/01/19 01:45:52;;;;;;;;;5.25;4.00;;;;;20.47;32.49;102473.91;4976696;28;45316;-57
2022/01/19 01:48:20;;;;;;;;;4.75;4.75;;;;;20.46;32.46;102467.81;4976748;28;45340;-53
2022/01/19 01:53:34;;;;;;;;;7.00;5.75;;;;;20.46;32.25;102464.28;4976947;28;45878;-57
2022/01/19 01:56:05;;;;;;;;;5.50;5.50;;;;;20.45;32.01;102465.22;4976819;28;45403;-57
2022/01/19 01:58:34;;;;;;;;;4.00;4.00;;;;;20.43;31.63;102459.13;4977150;28;45562;-55
2022/01/19 02:00:59;;;;;;;;;5.00;5.00;;;;;20.43;31.94;102451.22;4976336;28;45343;-57
2022/01/19 02:03:25;;;;;;;;;8.00;4.75;;;;;20.39;31.86;102446.03;4976477;28;45268;-58
2022/01/19 02:06:20;;;;;;;;;6.00;6.00;;;;;20.42;32.11;102444.25;4976538;28;45348;-55
2022/01/19 02:21:37;;;;;;;;;5.75;5.75;;;;;20.37;32.21;102413.63;4976315;28;45272;-58
2022/01/19 02:22:22;;;;;;;;;3.75;3.75;;;;;20.38;32.53;102409.25;4976093;28;45400;-57
2022/01/19 02:24:49;;;;;;;;;4.75;4.75;;;;;20.36;32.48;102404.00;4976052;28;45303;-56
2022/01/19 02:30:57;;;;;;;;;3.75;3.75;;;;;20.34;32.68;102389.16;4976553;28;45356;-56
2022/01/19 02:41:26;;;;;;;;;4.75;4.75;;;;;20.28;32.26;102371.78;4976185;28;45320;-58
2022/01/19 02:43:51;;;;;;;;;5.75;5.00;;;;;20.27;32.75;102367.41;4975828;28;45276;-56
2022/01/19 02:49:15;;;;;;;;;5.00;5.00;;;;;20.25;32.60;102353.44;4975745;28;45245;-57
2022/01/19 02:51:49;;;;;;;;;5.00;5.00;;;;;20.23;32.25;102352.59;4975999;28;45371;-50
2022/01/19 02:54:17;;;;;;;;;7.00;5.75;;;;;20.22;32.34;102351.75;4975851;28;45435;-58
2022/01/19 02:56:47;;;;;;;;;6.50;5.50;;;;;20.23;32.57;102349.97;4958164;28;45479;-54
2022/01/19 02:59:18;;;;;;;;;8.00;5.25;;;;;20.19;32.59;102340.47;4975819;28;45238;-55
2022/01/19 03:09:41;;;;;;;;;5.00;5.00;;;;;20.16;32.68;102337.91;4975505;28;45318;-58
2022/01/19 03:12:07;;;;;;;;;6.00;4.50;;;;;20.15;32.83;102341.44;4976354;28;45234;-56
2022/01/19 03:14:32;;;;;;;;;4.75;4.75;;;;;20.14;32.31;102339.72;4975417;28;45344;-55
2022/01/19 03:16:58;;;;;;;;;5.00;5.00;;;;;20.12;32.78;102339.78;4958083;28;45694;-56
2022/01/19 03:19:26;;;;;;;;;5.25;5.00;;;;;20.12;32.74;102337.16;4975696;28;45250;-54
2022/01/19 03:21:51;;;;;;;;;5.25;4.00;;;;;20.12;32.32;102336.28;4975786;28;45357;-53
2022/01/19 03:24:16;;;;;;;;;9.00;7.00;;;;;20.11;32.82;102329.31;4975316;28;46128;-56
2022/01/19 03:26:42;;;;;;;;;5.00;5.00;;;;;20.08;32.26;102324.97;4958121;28;45531;-49
2022/01/19 03:29:07;;;;;;;;;5.25;5.25;;;;;20.10;32.42;102332.84;4974481;28;45461;-53
2022/01/19 03:31:33;;;;;;;;;6.00;5.00;;;;;20.06;32.38;102319.75;4975680;28;45475;-48
2022/01/19 03:33:59;;;;;;;;;5.00;5.00;;;;;20.06;32.67;102319.75;4975220;28;45498;-48
2022/01/19 03:36:24;;;;;;;;;7.00;5.50;;;;;20.05;32.44;102322.44;4975513;28;45381;-50
2022/01/19 03:38:50;;;;;;;;;4.00;4.00;;;;;20.03;32.55;102321.63;4975519;28;45436;-52
2022/01/19 03:41:15;;;;;;;;;6.25;5.25;;;;;20.02;32.39;102326.00;4975761;28;45331;-46
2022/01/19 03:43:41;;;;;;;;;5.00;5.00;;;;;20.01;32.69;102326.06;4957868;28;45625;-49
2022/01/19 03:46:13;;;;;;;;;6.50;6.00;;;;;19.99;32.80;102322.63;4975463;28;45300;-53
2022/01/19 03:48:45;;;;;;;;;6.00;6.00;;;;;19.97;32.68;102320.03;4957968;28;45417;-56
2022/01/19 03:51:11;;;;;;;;;6.25;5.25;;;;;19.96;32.70;102312.16;4975646;28;45401;-49
2022/01/19 03:53:37;;;;;;;;;7.00;7.00;;;;;19.95;32.75;102313.97;4975355;28;46137;-57
2022/01/19 03:56:03;;;;;;;;;7.00;5.75;;;;;19.94;32.45;102306.97;4975010;28;45442;-55
2022/01/19 03:58:28;;;;;;;;;8.00;5.50;;;;;19.93;32.43;102307.88;4975192;28;45367;-58
2022/01/19 04:00:56;;;;;;;;;5.50;5.50;;;;;19.92;33.10;102300.88;4957666;28;45649;-54
2022/01/19 04:03:43;;;;;;;;;9.50;7.75;;;;;19.92;32.69;102298.25;4974920;28;47180;-58
2022/01/19 04:06:25;;;;;;;;;6.25;6.25;;;;;19.91;32.97;102301.78;4957644;28;45777;-54
2022/01/19 04:08:50;;;;;;;;;6.00;6.00;;;;;19.89;32.48;102293.94;4974782;28;45491;-57
2022/01/19 04:11:18;;;;;;;;;7.25;5.75;;;;;19.89;32.81;102290.47;4975212;28;45380;-57
2022/01/19 04:16:25;;;;;;;;;7.00;5.50;;;;;19.87;32.62;102284.38;4974752;28;45857;-57
2022/01/19 04:18:57;;;;;;;;;6.00;6.00;;;;;19.89;32.75;102285.19;4973744;28;45336;-55
2022/01/19 04:21:22;;;;;;;;;7.25;5.25;;;;;19.87;32.53;102281.75;4957409;28;45485;-59
2022/01/19 04:23:49;;;;;;;;;5.00;5.00;;;;;19.86;32.82;102288.75;4974475;28;45541;-58
2022/01/19 04:26:14;;;;;;;;;6.75;6.50;;;;;19.88;32.87;102299.25;4974681;28;45356;-58
2022/01/19 04:28:39;;;;;;;;;5.00;5.00;;;;;19.86;32.80;102291.41;4974989;28;45375;-58
2022/01/19 04:31:05;;;;;;;;;7.00;5.75;;;;;19.86;32.81;102295.81;4975045;28;45530;-53
2022/01/19 04:33:30;;;;;;;;;6.75;5.25;;;;;19.85;32.40;102299.31;4974525;28;46350;-60
2022/01/19 04:36:08;;;;;;;;;5.50;5.50;;;;;19.84;32.89;102295.84;4974628;28;45367;-57
2022/01/19 04:44:29;;;;;;;;;7.00;6.00;;;;;19.82;32.74;102296.75;4974391;28;45270;-58
2022/01/19 05:01:35;;;;;;;;;4.50;4.00;;;;;19.78;32.51;102294.25;4974245;28;45296;-56
2022/01/19 05:03:19;;;;;;;;;6.25;5.00;;;;;19.88;32.66;102286.09;4974460;28;45305;-57
2022/01/19 05:05:55;;;;;;;;;7.00;5.50;;;;;19.93;32.89;102286.81;4974051;28;46133;-48
2022/01/19 05:13:52;;;;;;;;;4.50;4.00;;;;;20.08;32.91;102281.09;4974502;28;45344;-58
2022/01/19 05:16:22;;;;;;;;;6.00;4.50;;;;;20.14;32.78;102279.19;4973963;28;46177;-54
2022/01/19 05:18:48;;;;;;;;;5.00;5.00;;;;;20.17;32.82;102282.59;4973949;28;45867;-55
2022/01/19 05:21:15;;;;;;;;;4.50;4.50;;;;;20.22;32.90;102278.03;4974438;28;45420;-51
2022/01/19 05:23:41;;;;;;;;;6.75;6.00;;;;;20.24;32.58;102273.59;4974685;28;45414;-54
2022/01/19 05:26:06;;;;;;;;;3.00;3.00;;;;;20.29;32.34;102264.66;4973928;28;46597;-55
2022/01/19 05:28:32;;;;;;;;;5.00;5.00;;;;;20.32;32.19;102268.09;4973803;28;45400;-52
2022/01/19 05:30:57;;;;;;;;;3.00;2.00;;;;;20.35;32.25;102278.50;4973994;28;45353;-56
2022/01/19 05:33:23;;;;;;;;;4.25;4.25;;;;;20.36;32.70;102277.59;4974125;28;45386;-58
2022/01/19 05:35:48;;;;;;;;;4.00;3.50;;;;;20.39;32.18;102281.94;4973650;28;45588;-57
2022/01/19 05:38:13;;;;;;;;;5.00;5.00;;;;;20.41;32.45;102273.97;4974103;28;45368;-56
2022/01/19 05:40:39;;;;;;;;;5.50;5.00;;;;;20.40;32.19;102275.72;4973857;28;45434;-54
2022/01/19 05:43:04;;;;;;;;;2.75;1.25;;;;;20.42;32.25;102276.53;4973988;28;45465;-56
2022/01/19 05:45:30;;;;;;;;;4.75;4.75;;;;;20.44;32.71;102281.78;4955999;28;47157;-57
2022/01/19 05:47:55;;;;;;;;;5.25;5.00;;;;;20.45;32.70;102272.97;4973473;28;45441;-57
2022/01/19 05:50:21;;;;;;;;;4.75;4.75;;;;;20.45;32.72;102267.69;4973738;28;45572;-56
2022/01/19 05:52:46;;;;;;;;;5.75;4.75;;;;;20.45;32.59;102272.97;4974114;28;45312;-57
2022/01/19 05:55:12;;;;;;;;;5.00;5.00;;;;;20.46;32.51;102275.53;4973388;28;46465;-56
2022/01/19 05:57:39;;;;;;;;;6.00;4.25;;;;;20.44;32.57;102272.09;4973564;28;45503;-53
2022/01/19 06:00:06;;;;;;;;;5.00;5.00;;;;;20.46;32.03;102277.28;4956288;28;45231;-56
2022/01/19 06:02:31;;;;;;;;;5.00;4.00;;;;;20.46;32.41;102274.66;4973545;28;45593;-55
2022/01/19 06:04:56;;;;;;;;;5.00;4.25;;;;;20.47;32.24;102279.03;4973287;28;45438;-55
2022/01/19 06:07:28;;;;;;;;;3.50;3.50;;;;;20.47;32.05;102279.03;4973175;28;45377;-55
2022/01/19 06:10:03;;;;;;;;;4.00;4.00;;;;;20.46;32.42;102274.66;4973088;28;45327;-54
2022/01/19 06:12:28;;;;;;;;;4.25;4.25;;;;;20.46;32.61;102282.56;4973510;28;45428;-54
2022/01/19 06:14:54;;;;;;;;;5.25;5.25;;;;;20.45;32.37;102275.59;4973081;28;45429;-58
2022/01/19 06:17:19;;;;;;;;;4.75;4.00;;;;;20.45;32.39;102276.44;4973084;28;45351;-58
2022/01/19 06:19:47;;;;;;;;;1.25;1.00;;;;;20.44;32.11;102266.81;4973658;28;45181;-55
2022/01/19 06:22:14;;;;;;;;;6.00;6.00;;;;;20.44;32.30;102268.63;4976390;28;45577;-58
2022/01/19 06:24:42;;;;;;;;;6.00;6.00;;;;;20.42;32.27;102265.16;4975978;28;46421;-51
2022/01/19 06:27:08;;;;;;;;;5.50;4.75;;;;;20.43;32.51;102272.16;4976157;28;45190;-57
2022/01/19 06:29:33;;;;;;;;;3.75;3.00;;;;;20.42;31.92;102273.06;4976081;28;45316;-58
2022/01/19 06:32:00;;;;;;;;;6.00;6.00;;;;;20.42;32.27;102270.44;4976402;28;45288;-55
2022/01/19 06:34:25;;;;;;;;;4.25;4.25;;;;;20.41;32.18;102266.06;4975927;28;47428;-56
2022/01/19 06:36:52;;;;;;;;;6.75;5.00;;;;;20.39;32.32;102261.72;4975969;28;45440;-58
2022/01/19 06:39:18;;;;;;;;;5.75;5.75;;;;;20.39;32.64;102264.34;4976293;28;45406;-58
2022/01/19 06:41:44;;;;;;;;;5.00;3.75;;;;;20.38;32.65;102265.25;4976193;28;45496;-57
2022/01/19 06:44:09;;;;;;;;;5.00;4.75;;;;;20.37;32.35;102267.94;4975782;28;45382;-58
2022/01/19 06:46:34;;;;;;;;;5.50;5.50;;;;;20.36;32.51;102267.06;4976026;28;45496;-57
2022/01/19 06:49:00;;;;;;;;;7.00;5.50;;;;;20.34;32.81;102254.88;4958528;28;45476;-57
2022/01/19 06:51:25;;;;;;;;;4.50;4.50;;;;;20.35;32.80;102254.81;4976179;28;45614;-54
2022/01/19 06:53:52;;;;;;;;;6.75;5.50;;;;;20.34;32.35;102254.88;4975667;28;50033;-53
2022/01/19 06:56:18;;;;;;;;;6.00;4.50;;;;;20.33;32.50;102261.03;4976042;28;45801;-56
2022/01/19 06:58:43;;;;;;;;;5.75;5.75;;;;;20.32;32.66;102262.81;4975893;28;45334;-56
2022/01/19 07:01:09;;;;;;;;;6.75;5.00;;;;;20.32;32.79;102261.94;4958491;28;45526;-57
2022/01/19 07:03:34;;;;;;;;;6.00;6.00;;;;;20.30;32.64;102256.75;4975660;28;46595;-51
2022/01/19 07:06:01;;;;;;;;;6.00;5.25;;;;;20.31;32.37;102253.19;4975548;28;45307;-54
2022/01/19 07:08:27;;;;;;;;;7.00;5.00;;;;;20.28;32.43;102253.28;4975748;28;45382;-54
2022/01/19 07:10:52;;;;;;;;;9.00;7.25;;;;;20.28;32.65;102261.19;4975653;28;45477;-57
2022/01/19 07:13:18;;;;;;;;;7.00;5.00;;;;;20.28;33.00;102261.19;4975802;28;45413;-56
2022/01/19 07:15:43;;;;;;;;;4.50;4.50;;;;;20.26;32.32;102255.09;4975547;28;45416;-56
2022/01/19 07:18:09;;;;;;;;;6.00;6.00;;;;;20.24;32.54;102251.66;4975583;28;45351;-53
2022/01/19 07:20:34;;;;;;;;;5.00;5.00;;;;;20.25;32.50;102256.00;4975865;28;45523;-52
2022/01/19 07:23:01;;;;;;;;;6.25;6.25;;;;;20.22;32.66;102250.88;4975360;28;46678;-56
2022/01/19 07:25:28;;;;;;;;;5.25;5.25;;;;;20.21;32.87;102260.53;4975379;28;45259;-57
2022/01/19 07:27:54;;;;;;;;;6.50;6.50;;;;;20.21;32.60;102262.31;4958157;28;45274;-57
2022/01/19 07:30:20;;;;;;;;;6.50;6.50;;;;;20.21;32.82;102259.66;4975922;28;45284;-55
2022/01/19 07:32:48;;;;;;;;;6.25;6.25;;;;;20.18;32.56;102268.50;4974702;28;49042;-58
2022/01/19 07:35:14;;;;;;;;;8.25;5.75;;;;;20.19;32.53;102267.59;4975399;28;45489;-55
2022/01/19 07:37:40;;;;;;;;;9.00;7.00;;;;;20.16;32.89;102265.09;4975354;28;45339;-56
2022/01/19 07:40:06;;;;;;;;;4.50;3.00;;;;;20.17;32.57;102276.47;4975515;28;45308;-58
2022/01/19 07:42:31;;;;;;;;;7.00;7.00;;;;;20.15;32.63;102270.38;4975048;28;46614;-55
2022/01/19 07:44:57;;;;;;;;;6.50;6.50;;;;;20.15;32.79;102273.88;4975100;28;45287;-58
2022/01/19 07:47:22;;;;;;;;;8.75;7.00;;;;;20.14;32.88;102271.28;4975577;28;45295;-57
2022/01/19 07:49:47;;;;;;;;;8.25;7.75;;;;;20.13;32.96;102272.19;4975687;28;45274;-56
2022/01/19 07:52:13;;;;;;;;;8.75;7.75;;;;;20.11;32.94;102266.97;4975130;28;46514;-56
2022/01/19 07:54:39;;;;;;;;;8.25;8.00;;;;;20.09;32.76;102266.16;4974978;28;45232;-58
2022/01/19 07:57:05;;;;;;;;;13.75;9.00;;;;;20.11;33.13;102274.03;4975151;28;45401;-58
2022/01/19 07:59:31;;;;;;;;;9.00;9.00;;;;;20.08;32.61;102277.59;4975190;28;45265;-57
2022/01/19 08:01:56;;;;;;;;;6.75;6.75;;;;;20.06;33.00;102280.28;4974940;28;46259;-56
2022/01/19 08:04:23;;;;;;;;;7.50;7.50;;;;;20.05;32.77;102281.19;4975196;28;45375;-55
2022/01/19 08:06:54;;;;;;;;;2.25;2.00;;;;;20.04;32.78;102276.84;4975205;28;45416;-54
2022/01/19 08:09:25;;;;;;;;;9.25;8.00;;;;;20.04;33.07;102279.47;4958148;28;45571;-56
2022/01/19 08:11:51;;;;;;;;;9.00;7.75;;;;;20.02;33.00;102269.91;4975250;28;45460;-54
2022/01/19 08:14:17;;;;;;;;;9.25;7.50;;;;;20.03;32.71;102274.25;4974857;28;45256;-52
2022/01/19 08:16:43;;;;;;;;;7.75;6.25;;;;;20.01;32.92;102274.28;4974855;28;45387;-57
2022/01/19 08:19:08;;;;;;;;;11.25;8.00;;;;;20.03;32.69;102276.88;4975164;28;45246;-58
2022/01/19 08:21:33;;;;;;;;;13.00;9.25;;;;;19.99;32.56;102269.97;4974762;28;46206;-52
2022/01/19 08:23:59;;;;;;;;;12.00;8.75;;;;;19.98;33.20;102278.78;4974653;28;45337;-56
2022/01/19 08:26:24;;;;;;;;;8.00;6.50;;;;;19.99;32.80;102280.50;4975189;28;45202;-53
2022/01/19 08:28:49;;;;;;;;;9.25;8.25;;;;;19.98;32.89;102282.28;4974921;28;45237;-55
2022/01/19 08:31:15;;;;;;;;;8.50;8.50;;;;;19.99;33.21;102289.28;4974804;28;46416;-58
2022/01/19 08:33:41;;;;;;;;;7.50;7.25;;;;;20.02;32.87;102290.94;4974700;28;45233;-56
2022/01/19 08:36:06;;;;;;;;;8.25;7.25;;;;;20.04;32.75;102292.63;4974690;28;45289;-57
2022/01/19 08:38:33;;;;;;;;;10.50;8.25;;;;;20.07;32.80;102297.81;4974807;28;45449;-58
2022/01/19 08:40:58;;;;;;;;;7.75;6.25;;;;;20.12;32.90;102297.66;4973119;28;46690;-58
2022/01/19 08:43:24;;;;;;;;;7.75;7.75;;;;;20.17;32.82;102293.13;4956120;28;45403;-58
2022/01/19 08:45:50;;;;;;;;;10.00;9.00;;;;;20.22;32.98;102301.72;4974537;28;45308;-58
2022/01/19 08:48:17;;;;;;;;;9.75;8.00;;;;;20.27;32.97;102304.22;4974636;28;45434;-59
2022/01/19 08:50:43;;;;;;;;;6.25;6.00;;;;;20.31;32.76;102303.22;4974346;28;45549;-56
2022/01/19 08:53:08;;;;;;;;;7.00;7.00;;;;;20.32;32.84;102299.69;4974232;28;45375;-56
2022/01/19 08:55:33;;;;;;;;;7.50;7.00;;;;;20.39;32.64;102303.84;4974517;28;45327;-53
2022/01/19 08:57:59;;;;;;;;;7.25;7.25;;;;;20.43;32.63;102309.03;4974591;28;45290;-52
2022/01/19 09:00:24;;;;;;;;;7.00;7.00;;;;;20.44;32.68;102314.22;4974633;28;45264;-50
2022/01/19 09:02:49;;;;;;;;;6.25;6.00;;;;;20.49;32.60;102312.31;4974199;28;45356;-48
2022/01/19 09:05:15;;;;;;;;;8.25;8.25;;;;;20.50;32.88;102315.81;4974362;28;45917;-50
2022/01/19 09:07:41;;;;;;;;;7.50;7.50;;;;;20.53;32.61;102321.00;4974444;28;45512;-50
2022/01/19 09:10:08;;;;;;;;;8.25;6.50;;;;;20.54;32.65;102326.19;4973691;28;46503;-51
2022/01/19 09:12:35;;;;;;;;;8.00;8.00;;;;;20.56;32.83;102320.88;4956598;28;45838;-57
2022/01/19 09:15:01;;;;;;;;;8.75;8.50;;;;;20.55;32.39;102321.81;4974281;28;45316;-55
2022/01/19 09:17:27;;;;;;;;;10.50;9.00;;;;;20.57;32.47;102325.22;4957464;28;45532;-54
2022/01/19 09:19:52;;;;;;;;;9.25;9.25;;;;;20.59;32.57;102328.69;4973878;28;45947;-46
2022/01/19 09:22:18;;;;;;;;;8.00;8.00;;;;;20.59;32.58;102330.47;4973965;28;45224;-49
2022/01/19 09:24:43;;;;;;;;;7.50;7.50;;;;;20.59;32.61;102320.78;4974049;28;45170;-53
2022/01/19 09:27:09;;;;;;;;;7.75;7.75;;;;;20.61;32.67;102326.88;4974288;28;45319;-50
2022/01/19 09:29:42;;;;;;;;;7.50;7.50;;;;;20.61;32.44;102329.50;4973651;28;46122;-52
2022/01/19 09:32:09;;;;;;;;;0.25;0.25;;;;;20.61;32.64;102326.03;4974089;28;45717;-52
2022/01/19 09:34:35;;;;;;;;;6.75;6.75;;;;;20.61;32.44;102329.50;4973949;28;45358;-50
2022/01/19 09:37:00;;;;;;;;;7.25;7.25;;;;;20.61;33.05;102326.03;4974049;28;45435;-47
2022/01/19 09:39:26;;;;;;;;;9.00;8.00;;;;;20.60;32.49;102333.03;4956448;28;45314;-53
2022/01/19 09:41:54;;;;;;;;;7.00;7.00;;;;;20.60;32.41;102327.78;4973783;28;45467;-55
2022/01/19 09:44:22;;;;;;;;;7.00;7.00;;;;;20.61;32.51;102336.56;4973798;28;45367;-58
2022/01/19 09:46:48;;;;;;;;;9.75;8.75;;;;;20.59;32.92;102338.38;4973944;28;45237;-56
2022/01/19 09:49:17;;;;;;;;;10.50;7.25;;;;;20.60;32.55;102337.47;4956124;28;45362;-54
2022/01/19 09:51:45;;;;;;;;;8.00;8.00;;;;;20.58;33.04;102334.84;4973442;28;46137;-57
2022/01/19 09:54:19;;;;;;;;;6.75;6.25;;;;;20.59;32.98;102336.59;4973909;28;45437;-58
2022/01/19 09:56:45;;;;;;;;;7.25;7.25;;;;;20.57;32.80;102327.00;4976739;28;45506;-55
2022/01/19 09:59:13;;;;;;;;;8.50;8.50;;;;;20.57;32.53;102324.38;4976321;28;46289;-56
2022/01/19 10:01:50;;;;;;;;;9.75;8.00;;;;;20.55;32.40;102327.91;4975264;28;45971;-55
2022/01/19 10:04:18;;;;;;;;;8.75;7.75;;;;;20.57;33.03;102327.84;4958975;28;45448;-58
2022/01/19 10:06:44;;;;;;;;;8.25;6.75;;;;;20.55;32.63;102319.16;4976669;28;45264;-56
2022/01/19 10:09:09;;;;;;;;;9.50;8.50;;;;;20.54;32.78;102323.56;4958321;28;48298;-56
2022/01/19 10:19:24;;;;;;;;;13.25;8.25;;;;;20.51;32.86;102328.06;4976019;28;45297;-57
2022/01/19 10:22:13;;;;;;;;;7.25;6.25;;;;;20.49;32.59;102332.53;4958833;28;45663;-57
2022/01/19 10:24:56;;;;;;;;;9.25;9.25;;;;;20.49;33.15;102324.63;4976452;28;45387;-57
2022/01/19 10:27:39;;;;;;;;;7.50;7.50;;;;;20.48;32.54;102322.88;4976682;28;45282;-55
2022/01/19 10:30:05;;;;;;;;;8.00;7.00;;;;;20.46;33.08;102314.16;4976213;28;45588;-57
2022/01/19 10:32:50;;;;;;;;;8.25;8.25;;;;;20.46;32.80;102324.69;4976551;28;45247;-55
2022/01/19 10:35:31;;;;;;;;;10.25;8.25;;;;;20.44;33.16;102326.56;4976224;28;45244;-58
2022/01/19 10:38:23;;;;;;;;;12.75;10.00;;;;;20.45;33.21;102328.28;4976769;28;45368;-58
2022/01/19 10:40:55;;;;;;;;;8.25;8.25;;;;;20.43;32.78;102325.66;4975907;28;46691;-56
2022/01/19 10:43:44;;;;;;;;;10.00;7.00;;;;;20.42;33.32;102318.69;4976134;28;45380;-56
2022/01/19 10:46:15;;;;;;;;;10.75;8.50;;;;;20.41;33.28;102321.38;4975758;28;45358;-52
2022/01/19 10:48:42;;;;;;;;;11.00;7.50;;;;;20.39;32.85;102319.66;4976256;28;45219;-55
2022/01/19 10:51:14;;;;;;;;;9.00;5.75;;;;;20.39;32.93;102313.53;4975722;28;46801;-55
2022/01/19 10:53:43;;;;;;;;;8.25;8.25;;;;;20.36;33.00;102301.28;4975973;28;45186;-51
2022/01/19 10:56:24;;;;;;;;;10.00;8.75;;;;;20.35;32.88;102307.47;4975791;28;45300;-48
2022/01/19 10:59:00;;;;;;;;;8.75;7.00;;;;;20.36;32.91;102305.72;4976348;28;45296;-54
2022/01/19 11:01:37;;;;;;;;;7.50;7.50;;;;;20.35;33.25;102306.63;4975494;28;45778;-53
2022/01/19 11:04:37;;;;;;;;;8.00;8.00;;;;;20.34;33.04;102308.38;4976072;28;45847;-50
2022/01/19 11:07:07;;;;;;;;;9.50;9.25;;;;;20.33;33.26;102308.44;4975405;28;45387;-57
2022/01/19 11:09:42;;;;;;;;;11.25;9.00;;;;;20.30;33.37;102303.25;4976020;28;45520;-57
2022/01/19 11:12:12;;;;;;;;;13.50;10.75;;;;;20.30;32.97;102298.88;4957973;28;45634;-58
2022/01/19 11:14:40;;;;;;;;;11.75;10.25;;;;;20.29;33.18;102294.50;4975386;28;45303;-56
2022/01/19 11:17:06;;;;;;;;;12.00;9.00;;;;;20.27;33.18;102292.84;4975538;28;45383;-57
2022/01/19 11:19:39;;;;;;;;;9.75;9.75;;;;;20.26;33.64;102293.75;4976066;28;45633;-58
2022/01/19 11:22:22;;;;;;;;;10.00;10.00;;;;;20.28;33.56;102294.56;4975545;28;45389;-53
2022/01/19 11:25:18;;;;;;;;;12.50;11.25;;;;;20.26;33.00;102286.69;4975291;28;45303;-56
2022/01/19 11:27:47;;;;;;;;;9.00;8.00;;;;;20.24;33.32;102285.88;4975729;28;45328;-54
2022/01/19 11:30:18;;;;;;;;;11.00;10.00;;;;;20.24;33.17;102283.25;4975644;28;45396;-58
2022/01/19 11:33:05;;;;;;;;;2.75;2.00;;;;;20.24;32.93;102285.88;4975379;28;45740;-58
2022/01/19 11:35:32;;;;;;;;;9.25;8.00;;;;;20.21;33.27;102270.19;4975531;28;45257;-56
2022/01/19 11:37:58;;;;;;;;;11.25;11.25;;;;;20.21;33.67;102278.09;4975409;28;45385;-57
2022/01/19 11:40:34;;;;;;;;;10.25;9.50;;;;;20.21;33.07;102272.84;4975704;28;45392;-58
2022/01/19 11:43:47;;;;;;;;;13.25;10.00;;;;;20.20;33.54;102273.75;4975159;28;46311;-53
2022/01/19 11:46:31;;;;;;;;;12.00;8.50;;;;;20.18;33.22;102268.50;4914945;28;45428;-58
2022/01/19 11:48:57;;;;;;;;;9.00;9.00;;;;;20.18;33.45;102267.66;4915199;28;45365;-58
2022/01/19 11:51:26;;;;;;;;;11.50;10.00;;;;;20.17;33.42;102265.94;4954462;28;45727;-54
2022/01/19 11:54:15;;;;;;;;;11.50;10.50;;;;;20.16;33.20;102249.28;4975114;28;47418;-57
2022/01/19 11:57:06;;;;;;;;;11.75;10.75;;;;;20.15;33.35;102246.69;4975239;28;45980;-57
2022/01/19 11:59:43;;;;;;;;;15.75;12.00;;;;;20.15;33.59;102246.69;4968111;27;45454;-58
2022/01/19 12:02:20;;;;;;;;;14.00;10.75;;;;;20.14;33.47;102255.50;4975460;28;45369;-57
2022/01/19 12:04:50;;;;;;;;;11.75;11.00;;;;;20.13;33.94;102253.75;4975120;28;46035;-56
2022/01/19 12:07:41;;;;;;;;;13.00;11.00;;;;;20.13;33.40;102259.03;4974891;28;45792;-57
2022/01/19 12:10:19;;;;;;;;;11.00;9.25;;;;;20.12;33.90;102252.06;4957585;28;45411;-55
2022/01/19 12:13:09;;;;;;;;;12.50;12.00;;;;;20.11;33.52;102240.66;4975175;28;45506;-58
2022/01/19 12:15:58;;;;;;;;;11.75;11.75;;;;;20.10;33.15;102241.56;4975037;28;46718;-52
2022/01/19 12:18:57;;;;;;;;;10.00;10.00;;;;;20.10;33.36;102230.19;4957452;28;45332;-55
2022/01/19 12:21:31;;;;;;;;;11.75;10.25;;;;;20.08;33.83;102231.09;4974778;28;45304;-54
2022/01/19 12:24:12;;;;;;;;;9.50;9.50;;;;;20.08;33.96;102231.09;4975062;28;45485;-56
2022/01/19 12:26:59;;;;;;;;;16.00;13.00;;;;;20.10;33.97;102228.41;4974788;28;45443;-51
2022/01/19 12:29:33;;;;;;;;;11.25;11.25;;;;;20.11;33.72;102222.22;4957169;28;45434;-58
2022/01/19 12:32:20;;;;;;;;;14.25;12.25;;;;;20.13;33.74;102223.06;4974755;28;45413;-52
2022/01/19 12:34:46;;;;;;;;;8.25;8.25;;;;;20.18;33.49;102223.75;4944928;28;45449;-57
2022/01/19 12:37:32;;;;;;;;;11.25;11.00;;;;;20.21;33.80;102220.19;4974503;28;46476;-54
2022/01/19 12:39:58;;;;;;;;;10.25;10.25;;;;;20.28;33.30;102231.38;4964323;28;45871;-55
2022/01/19 12:42:26;;;;;;;;;10.25;10.25;;;;;20.32;33.74;102225.09;4973473;28;45295;-53
2022/01/19 12:44:57;;;;;;;;;10.50;9.50;;;;;20.36;33.44;102214.41;4974755;28;45229;-50
2022/01/19 12:47:25;;;;;;;;;9.25;9.25;;;;;20.42;33.56;102210.72;4974210;28;46475;-50